createdAt,value
2022-12-03T00:00:30.480Z,935.62
2022-12-03T00:01:30.663Z,935.63
2022-12-03T00:02:31.080Z,935.61
2022-12-03T00:03:31.300Z,935.61
2022-12-03T00:04:32.185Z,935.57
2022-12-03T00:05:33.132Z,935.56
2022-12-03T00:06:34.779Z,935.53
2022-12-03T00:07:34.902Z,935.53
2022-12-03T00:08:35.511Z,935.54
2022-12-03T00:09:36.459Z,935.51
2022-12-03T00:10:37.348Z,935.54
2022-12-03T00:11:37.699Z,935.55
2022-12-03T00:12:38.002Z,935.54
2022-12-03T00:13:38.920Z,935.58
2022-12-03T00:14:44.342Z,935.56
2022-12-03T00:15:40.436Z,935.55
2022-12-03T00:16:40.655Z,935.52
2022-12-03T00:17:41.565Z,935.54
2022-12-03T00:18:41.717Z,935.54
2022-12-03T00:19:42.640Z,935.52
2022-12-03T00:20:43.560Z,935.51
2022-12-03T00:21:44.031Z,935.49
2022-12-03T00:22:44.347Z,935.5
2022-12-03T00:23:45.258Z,935.52
2022-12-03T00:24:46.178Z,935.5
2022-12-03T00:25:46.647Z,935.5
2022-12-03T00:26:47.008Z,935.43
2022-12-03T00:27:47.501Z,935.51
2022-12-03T00:28:47.717Z,935.47
2022-12-03T00:29:47.910Z,935.45
2022-12-03T00:30:48.397Z,935.47
2022-12-03T00:31:48.378Z,935.44
2022-12-03T00:32:49.122Z,935.45
2022-12-03T00:33:49.715Z,935.48
2022-12-03T00:34:50.507Z,935.53
2022-12-03T00:35:50.790Z,935.5
2022-12-03T00:36:51.267Z,935.5
2022-12-03T00:37:51.580Z,935.48
2022-12-03T00:38:52.490Z,935.48
2022-12-03T00:39:53.417Z,935.52
2022-12-03T00:40:53.897Z,935.52
2022-12-03T00:41:54.805Z,935.49
2022-12-03T00:42:55.810Z,935.5
2022-12-03T00:43:56.017Z,935.48
2022-12-03T00:44:56.923Z,935.49
2022-12-03T00:45:57.611Z,935.48
2022-12-03T00:46:58.497Z,935.47
2022-12-03T00:47:58.579Z,935.49
2022-12-03T00:48:58.682Z,935.51
2022-12-03T00:49:59.593Z,935.51
2022-12-03T00:50:59.827Z,935.51
2022-12-03T00:52:00.029Z,935.52
2022-12-03T00:53:00.738Z,935.52
2022-12-03T00:54:00.973Z,935.45
2022-12-03T00:55:01.370Z,935.44
2022-12-03T00:56:01.648Z,935.41
2022-12-03T00:57:01.826Z,935.43
2022-12-03T00:58:02.720Z,935.46
2022-12-03T00:59:02.961Z,935.45
2022-12-03T01:00:03.869Z,935.46
2022-12-03T01:01:04.776Z,935.47
2022-12-03T01:02:05.236Z,935.43
2022-12-03T01:03:05.770Z,935.45
2022-12-03T01:04:06.367Z,935.46
2022-12-03T01:05:07.346Z,935.44
2022-12-03T01:06:08.052Z,935.44
2022-12-03T01:07:08.541Z,935.47
2022-12-03T01:08:09.566Z,935.47
2022-12-03T01:09:09.789Z,935.46
2022-12-03T01:10:10.708Z,935.46
2022-12-03T01:11:11.396Z,935.44
2022-12-03T01:12:11.609Z,935.45
2022-12-03T01:13:11.879Z,935.47
2022-12-03T01:14:12.125Z,935.45
2022-12-03T01:15:12.325Z,935.4
2022-12-03T01:16:12.967Z,935.37
2022-12-03T01:17:13.825Z,935.35
2022-12-03T01:18:14.454Z,935.39
2022-12-03T01:19:15.065Z,935.42
2022-12-03T01:20:15.962Z,935.44
2022-12-03T01:21:16.179Z,935.41
2022-12-03T01:22:16.799Z,935.39
2022-12-03T01:23:17.250Z,935.43
2022-12-03T01:24:17.496Z,935.38
2022-12-03T01:25:17.704Z,935.41
2022-12-03T01:26:18.336Z,935.41
2022-12-03T01:27:19.251Z,935.41
2022-12-03T01:28:19.868Z,935.38
2022-12-03T01:29:20.381Z,935.39
2022-12-03T01:30:21.280Z,935.37
2022-12-03T01:31:21.736Z,935.37
2022-12-03T01:32:22.522Z,935.34
2022-12-03T01:33:23.254Z,935.39
2022-12-03T01:34:23.460Z,935.39
2022-12-03T01:35:24.076Z,935.41
2022-12-03T01:36:24.339Z,935.4
2022-12-03T01:37:24.518Z,935.4
2022-12-03T01:38:24.742Z,935.41
2022-12-03T01:39:24.954Z,935.38
2022-12-03T01:40:25.145Z,935.46
2022-12-03T01:41:25.488Z,935.43
2022-12-03T01:42:26.397Z,935.4
2022-12-03T01:43:27.102Z,935.4
2022-12-03T01:44:27.343Z,935.41
2022-12-03T01:45:27.958Z,935.41
2022-12-03T01:46:28.494Z,935.39
2022-12-03T01:47:28.843Z,935.39
2022-12-03T01:48:29.878Z,935.4
2022-12-03T01:49:30.803Z,935.36
2022-12-03T01:50:31.369Z,935.34
2022-12-03T01:51:31.583Z,935.38
2022-12-03T01:52:32.500Z,935.36
2022-12-03T01:53:33.233Z,935.36
2022-12-03T01:54:33.439Z,935.35
2022-12-03T01:55:34.483Z,935.31
2022-12-03T01:56:34.796Z,935.35
2022-12-03T01:57:35.682Z,935.35
2022-12-03T01:58:35.869Z,935.37
2022-12-03T01:59:36.090Z,935.38
2022-12-03T02:00:36.995Z,935.41
2022-12-03T02:01:37.975Z,935.41
2022-12-03T02:02:38.493Z,935.37
2022-12-03T02:03:39.543Z,935.38
2022-12-03T02:04:39.839Z,935.38
2022-12-03T02:05:40.414Z,935.37
2022-12-03T02:06:40.646Z,935.37
2022-12-03T02:07:41.235Z,935.41
2022-12-03T02:08:41.625Z,935.42
2022-12-03T02:09:42.265Z,935.44
2022-12-03T02:10:42.489Z,935.43
2022-12-03T02:11:42.693Z,935.48
2022-12-03T02:12:42.898Z,935.45
2022-12-03T02:13:43.892Z,935.41
2022-12-03T02:14:44.113Z,935.41
2022-12-03T02:15:45.210Z,935.43
2022-12-03T02:16:45.854Z,935.44
2022-12-03T02:17:46.086Z,935.44
2022-12-03T02:18:46.299Z,935.45
2022-12-03T02:19:46.484Z,935.41
2022-12-03T02:20:47.405Z,935.45
2022-12-03T02:21:48.067Z,935.45
2022-12-03T02:22:48.702Z,935.47
2022-12-03T02:23:49.720Z,935.48
2022-12-03T02:24:50.594Z,935.45
2022-12-03T02:25:51.054Z,935.45
2022-12-03T02:26:51.542Z,935.43
2022-12-03T02:27:52.161Z,935.42
2022-12-03T02:28:53.075Z,935.42
2022-12-03T02:29:53.291Z,935.42
2022-12-03T02:30:53.920Z,935.41
2022-12-03T02:31:54.476Z,935.45
2022-12-03T02:32:54.541Z,935.44
2022-12-03T02:33:54.980Z,935.39
2022-12-03T02:34:55.539Z,935.35
2022-12-03T02:35:59.142Z,935.38
2022-12-03T02:36:56.809Z,935.36
2022-12-03T02:37:57.423Z,935.32
2022-12-03T02:38:57.640Z,935.3
2022-12-03T02:39:58.271Z,935.29
2022-12-03T02:40:58.487Z,935.35
2022-12-03T02:41:59.400Z,935.35
2022-12-03T02:43:00.034Z,935.36
2022-12-03T02:44:00.734Z,935.34
2022-12-03T02:45:05.029Z,935.39
2022-12-03T02:46:01.734Z,935.38
2022-12-03T02:47:02.110Z,935.4
2022-12-03T02:48:02.824Z,935.38
2022-12-03T02:49:03.445Z,935.42
2022-12-03T02:50:04.071Z,935.42
2022-12-03T02:51:04.982Z,935.4
2022-12-03T02:52:05.190Z,935.36
2022-12-03T02:53:06.110Z,935.39
2022-12-03T02:54:06.420Z,935.38
2022-12-03T02:55:06.607Z,935.36
2022-12-03T02:56:06.818Z,935.36
2022-12-03T02:57:07.029Z,935.36
2022-12-03T02:58:07.620Z,935.34
2022-12-03T02:59:08.104Z,935.32
2022-12-03T03:00:08.338Z,935.33
2022-12-03T03:01:09.023Z,935.34
2022-12-03T03:02:09.188Z,935.32
2022-12-03T03:03:09.673Z,935.31
2022-12-03T03:04:10.672Z,935.29
2022-12-03T03:05:11.285Z,935.31
2022-12-03T03:06:11.773Z,935.34
2022-12-03T03:07:12.430Z,935.31
2022-12-03T03:08:13.034Z,935.32
2022-12-03T03:09:13.553Z,935.28
2022-12-03T03:10:14.468Z,935.29
2022-12-03T03:11:15.402Z,935.3
2022-12-03T03:12:16.315Z,935.31
2022-12-03T03:13:16.441Z,935.31
2022-12-03T03:14:17.004Z,935.35
2022-12-03T03:15:17.234Z,935.34
2022-12-03T03:16:17.486Z,935.31
2022-12-03T03:17:18.425Z,935.31
2022-12-03T03:18:19.339Z,935.31
2022-12-03T03:19:19.830Z,935.34
2022-12-03T03:20:20.457Z,935.31
2022-12-03T03:21:20.642Z,935.3
2022-12-03T03:22:21.273Z,935.31
2022-12-03T03:23:21.746Z,935.29
2022-12-03T03:24:22.768Z,935.27
2022-12-03T03:25:23.675Z,935.26
2022-12-03T03:26:24.605Z,935.26
2022-12-03T03:27:25.224Z,935.3
2022-12-03T03:28:26.130Z,935.29
2022-12-03T03:29:26.610Z,935.3
2022-12-03T03:30:27.552Z,935.37
2022-12-03T03:31:28.247Z,935.37
2022-12-03T03:32:28.562Z,935.36
2022-12-03T03:33:29.526Z,935.35
2022-12-03T03:34:30.219Z,935.35
2022-12-03T03:35:30.426Z,935.34
2022-12-03T03:36:31.043Z,935.34
2022-12-03T03:37:31.994Z,935.32
2022-12-03T03:38:32.643Z,935.31
2022-12-03T03:39:32.836Z,935.32
2022-12-03T03:40:33.319Z,935.33
2022-12-03T03:41:34.247Z,935.34
2022-12-03T03:42:34.890Z,935.35
2022-12-03T03:43:35.515Z,935.31
2022-12-03T03:44:36.223Z,935.28
2022-12-03T03:45:36.892Z,935.29
2022-12-03T03:46:37.341Z,935.28
2022-12-03T03:47:37.976Z,935.24
2022-12-03T03:48:38.458Z,935.25
2022-12-03T03:49:39.376Z,935.21
2022-12-03T03:50:39.564Z,935.24
2022-12-03T03:51:40.178Z,935.2
2022-12-03T03:52:41.108Z,935.21
2022-12-03T03:53:41.295Z,935.25
2022-12-03T03:54:42.038Z,935.22
2022-12-03T03:55:43.105Z,935.24
2022-12-03T03:56:43.736Z,935.24
2022-12-03T03:57:44.620Z,935.24
2022-12-03T03:58:45.553Z,935.24
2022-12-03T03:59:46.441Z,935.26
2022-12-03T04:00:47.498Z,935.27
2022-12-03T04:01:48.226Z,935.24
2022-12-03T04:02:48.857Z,935.34
2022-12-03T04:03:49.523Z,935.38
2022-12-03T04:04:50.397Z,935.41
2022-12-03T04:05:50.959Z,935.38
2022-12-03T04:06:51.162Z,935.39
2022-12-03T04:07:52.181Z,935.41
2022-12-03T04:08:52.532Z,935.34
2022-12-03T04:09:53.166Z,935.33
2022-12-03T04:10:53.648Z,935.28
2022-12-03T04:11:54.575Z,935.31
2022-12-03T04:12:55.191Z,935.29
2022-12-03T04:13:55.674Z,935.29
2022-12-03T04:14:55.926Z,935.22
2022-12-03T04:15:56.530Z,935.23
2022-12-03T04:16:57.216Z,935.21
2022-12-03T04:17:57.642Z,935.17
2022-12-03T04:18:58.558Z,935.23
2022-12-03T04:19:59.474Z,935.22
2022-12-03T04:21:00.085Z,935.23
2022-12-03T04:22:01.002Z,935.2
2022-12-03T04:23:01.932Z,935.17
2022-12-03T04:24:02.843Z,935.17
2022-12-03T04:25:03.707Z,935.17
2022-12-03T04:26:03.913Z,935.15
2022-12-03T04:27:04.127Z,935.19
2022-12-03T04:28:04.621Z,935.19
2022-12-03T04:29:04.797Z,935.18
2022-12-03T04:30:05.710Z,935.25
2022-12-03T04:31:06.116Z,935.26
2022-12-03T04:32:06.378Z,935.24
2022-12-03T04:33:07.291Z,935.25
2022-12-03T04:34:07.931Z,935.25
2022-12-03T04:35:08.301Z,935.24
2022-12-03T04:36:09.278Z,935.25
2022-12-03T04:37:10.184Z,935.25
2022-12-03T04:38:11.117Z,935.21
2022-12-03T04:39:11.313Z,935.21
2022-12-03T04:40:11.532Z,935.25
2022-12-03T04:41:12.440Z,935.23
2022-12-03T04:42:13.074Z,935.25
2022-12-03T04:43:14.084Z,935.23
2022-12-03T04:44:14.292Z,935.21
2022-12-03T04:45:15.073Z,935.23
2022-12-03T04:46:16.078Z,935.25
2022-12-03T04:47:16.710Z,935.2
2022-12-03T04:48:17.308Z,935.22
2022-12-03T04:49:17.519Z,935.2
2022-12-03T04:50:18.429Z,935.2
2022-12-03T04:51:19.046Z,935.27
2022-12-03T04:52:19.240Z,935.32
2022-12-03T04:53:20.172Z,935.3
2022-12-03T04:54:20.290Z,935.31
2022-12-03T04:55:20.595Z,935.27
2022-12-03T04:56:21.504Z,935.22
2022-12-03T04:57:21.719Z,935.22
2022-12-03T04:58:21.937Z,935.27
2022-12-03T04:59:22.582Z,935.29
2022-12-03T05:00:23.469Z,935.33
2022-12-03T05:01:24.038Z,935.35
2022-12-03T05:02:24.561Z,935.32
2022-12-03T05:03:24.990Z,935.3
2022-12-03T05:04:25.181Z,935.31
2022-12-03T05:05:25.613Z,935.32
2022-12-03T05:06:26.542Z,935.32
2022-12-03T05:07:27.184Z,935.29
2022-12-03T05:08:27.579Z,935.34
2022-12-03T05:09:28.490Z,935.34
2022-12-03T05:10:29.407Z,935.38
2022-12-03T05:11:29.626Z,935.4
2022-12-03T05:12:30.118Z,935.42
2022-12-03T05:13:31.031Z,935.46
2022-12-03T05:14:31.314Z,935.46
2022-12-03T05:15:32.338Z,935.4
2022-12-03T05:16:32.707Z,935.38
2022-12-03T05:17:32.823Z,935.41
2022-12-03T05:18:33.021Z,935.42
2022-12-03T05:19:33.932Z,935.41
2022-12-03T05:20:34.837Z,935.37
2022-12-03T05:21:35.068Z,935.36
2022-12-03T05:22:35.692Z,935.38
2022-12-03T05:23:36.631Z,935.42
2022-12-03T05:24:37.532Z,935.41
2022-12-03T05:25:37.802Z,935.39
2022-12-03T05:26:38.691Z,935.43
2022-12-03T05:27:39.181Z,935.37
2022-12-03T05:28:39.496Z,935.37
2022-12-03T05:29:40.106Z,935.31
2022-12-03T05:30:40.796Z,935.34
2022-12-03T05:31:41.190Z,935.35
2022-12-03T05:32:42.124Z,935.36
2022-12-03T05:33:44.342Z,935.32
2022-12-03T05:34:42.598Z,935.31
2022-12-03T05:35:42.953Z,935.29
2022-12-03T05:36:43.847Z,935.26
2022-12-03T05:37:44.780Z,935.29
2022-12-03T05:38:45.010Z,935.3
2022-12-03T05:39:45.910Z,935.28
2022-12-03T05:40:46.104Z,935.33
2022-12-03T05:41:47.013Z,935.32
2022-12-03T05:42:47.299Z,935.33
2022-12-03T05:43:48.021Z,935.33
2022-12-03T05:44:48.944Z,935.32
2022-12-03T05:45:49.829Z,935.35
2022-12-03T05:46:50.410Z,935.36
2022-12-03T05:47:50.895Z,935.36
2022-12-03T05:48:51.802Z,935.34
2022-12-03T05:49:52.714Z,935.35
2022-12-03T05:50:52.921Z,935.4
2022-12-03T05:51:58.125Z,935.39
2022-12-03T05:52:53.918Z,935.42
2022-12-03T05:53:54.863Z,935.37
2022-12-03T05:54:55.550Z,935.39
2022-12-03T05:55:55.752Z,935.44
2022-12-03T05:56:56.369Z,935.47
2022-12-03T05:57:57.305Z,935.45
2022-12-03T05:58:57.940Z,935.43
2022-12-03T05:59:58.423Z,935.44
2022-12-03T06:00:58.632Z,935.43
2022-12-03T06:01:58.850Z,935.41
2022-12-03T06:02:59.322Z,935.38
2022-12-03T06:03:59.713Z,935.38
2022-12-03T06:05:00.638Z,935.42
2022-12-03T06:06:01.639Z,935.43
2022-12-03T06:07:02.119Z,935.4
2022-12-03T06:08:02.584Z,935.34
2022-12-03T06:09:03.493Z,935.31
2022-12-03T06:10:03.677Z,935.31
2022-12-03T06:11:03.893Z,935.35
2022-12-03T06:12:04.250Z,935.32
2022-12-03T06:13:05.185Z,935.36
2022-12-03T06:14:05.801Z,935.34
2022-12-03T06:15:06.426Z,935.35
2022-12-03T06:16:07.366Z,935.28
2022-12-03T06:17:08.033Z,935.24
2022-12-03T06:18:08.354Z,935.23
2022-12-03T06:19:08.841Z,935.22
2022-12-03T06:20:09.024Z,935.28
2022-12-03T06:21:09.955Z,935.32
2022-12-03T06:22:10.435Z,935.33
2022-12-03T06:23:10.614Z,935.32
2022-12-03T06:24:11.542Z,935.26
2022-12-03T06:25:12.014Z,935.21
2022-12-03T06:26:13.004Z,935.23
2022-12-03T06:27:13.932Z,935.18
2022-12-03T06:28:14.157Z,935.18
2022-12-03T06:29:15.049Z,935.14
2022-12-03T06:30:15.541Z,935.16
2022-12-03T06:31:15.796Z,935.14
2022-12-03T06:32:16.678Z,935.11
2022-12-03T06:33:17.303Z,935.15
2022-12-03T06:34:17.786Z,935.15
2022-12-03T06:35:17.968Z,935.15
2022-12-03T06:36:22.921Z,935.2
2022-12-03T06:37:19.208Z,935.2
2022-12-03T06:38:20.096Z,935.18
2022-12-03T06:39:21.024Z,935.17
2022-12-03T06:40:21.941Z,935.15
2022-12-03T06:41:22.433Z,935.16
2022-12-03T06:42:23.321Z,935.15
2022-12-03T06:43:24.247Z,935.08
2022-12-03T06:44:24.654Z,935.15
2022-12-03T06:45:25.139Z,935.13
2022-12-03T06:46:26.185Z,935.11
2022-12-03T06:47:27.070Z,935.08
2022-12-03T06:48:27.693Z,935.1
2022-12-03T06:49:27.882Z,935.09
2022-12-03T06:50:28.781Z,935.13
2022-12-03T06:51:29.677Z,935.11
2022-12-03T06:52:30.277Z,935.16
2022-12-03T06:53:30.785Z,935.14
2022-12-03T06:54:31.144Z,935.11
2022-12-03T06:55:31.343Z,935.12
2022-12-03T06:56:35.974Z,935.14
2022-12-03T06:57:32.547Z,935.17
2022-12-03T06:58:33.478Z,935.14
2022-12-03T06:59:33.677Z,935.17
2022-12-03T07:00:33.885Z,935.14
2022-12-03T07:01:34.106Z,935.13
2022-12-03T07:02:34.687Z,935.17
2022-12-03T07:03:35.470Z,935.21
2022-12-03T07:04:35.678Z,935.25
2022-12-03T07:05:36.582Z,935.19
2022-12-03T07:06:37.160Z,935.14
2022-12-03T07:07:37.381Z,935.16
2022-12-03T07:08:37.870Z,935.16
2022-12-03T07:09:38.102Z,935.2
2022-12-03T07:10:38.592Z,935.2
2022-12-03T07:11:39.243Z,935.22
2022-12-03T07:12:39.838Z,935.19
2022-12-03T07:13:40.767Z,935.24
2022-12-03T07:14:41.516Z,935.22
2022-12-03T07:15:42.314Z,935.21
2022-12-03T07:16:43.179Z,935.21
2022-12-03T07:17:43.925Z,935.21
2022-12-03T07:18:44.110Z,935.22
2022-12-03T07:19:45.015Z,935.18
2022-12-03T07:20:45.942Z,935.17
2022-12-03T07:21:46.309Z,935.24
2022-12-03T07:22:47.200Z,935.26
2022-12-03T07:23:48.101Z,935.23
2022-12-03T07:24:49.035Z,935.26
2022-12-03T07:25:49.817Z,935.25
2022-12-03T07:26:50.129Z,935.23
2022-12-03T07:27:50.331Z,935.23
2022-12-03T07:28:50.943Z,935.24
2022-12-03T07:29:51.864Z,935.21
2022-12-03T07:30:52.890Z,935.21
2022-12-03T07:31:53.459Z,935.2
2022-12-03T07:32:54.439Z,935.21
2022-12-03T07:33:55.344Z,935.18
2022-12-03T07:34:56.560Z,935.21
2022-12-03T07:35:57.110Z,935.2
2022-12-03T07:36:58.137Z,935.2
2022-12-03T07:37:58.553Z,935.18
2022-12-03T07:38:58.771Z,935.27
2022-12-03T07:39:59.700Z,935.25
2022-12-03T07:40:59.894Z,935.26
2022-12-03T07:42:00.114Z,935.29
2022-12-03T07:43:00.302Z,935.25
2022-12-03T07:44:00.526Z,935.23
2022-12-03T07:45:01.492Z,935.23
2022-12-03T07:46:02.410Z,935.17
2022-12-03T07:47:03.251Z,935.19
2022-12-03T07:48:03.734Z,935.18
2022-12-03T07:49:04.396Z,935.17
2022-12-03T07:50:05.307Z,935.22
2022-12-03T07:51:05.492Z,935.23
2022-12-03T07:52:05.769Z,935.18
2022-12-03T07:53:06.658Z,935.22
2022-12-03T07:54:06.863Z,935.18
2022-12-03T07:55:07.428Z,935.2
2022-12-03T07:56:08.327Z,935.19
2022-12-03T07:57:08.527Z,935.19
2022-12-03T07:58:09.429Z,935.21
2022-12-03T07:59:10.362Z,935.2
2022-12-03T08:00:10.553Z,935.21
2022-12-03T08:01:10.943Z,935.24
2022-12-03T08:02:11.594Z,935.24
2022-12-03T08:03:12.565Z,935.21
2022-12-03T08:04:13.598Z,935.17
2022-12-03T08:05:14.519Z,935.15
2022-12-03T08:06:14.709Z,935.12
2022-12-03T08:07:15.172Z,935.17
2022-12-03T08:08:16.314Z,935.17
2022-12-03T08:09:16.675Z,935.17
2022-12-03T08:10:17.057Z,935.21
2022-12-03T08:11:17.958Z,935.22
2022-12-03T08:12:18.162Z,935.2
2022-12-03T08:13:18.361Z,935.18
2022-12-03T08:14:19.264Z,935.22
2022-12-03T08:15:20.175Z,935.21
2022-12-03T08:16:20.960Z,935.28
2022-12-03T08:17:21.558Z,935.21
2022-12-03T08:18:22.220Z,935.21
2022-12-03T08:19:23.147Z,935.21
2022-12-03T08:20:23.337Z,935.25
2022-12-03T08:21:23.675Z,935.27
2022-12-03T08:22:23.871Z,935.23
2022-12-03T08:23:24.504Z,935.27
2022-12-03T08:24:25.421Z,935.25
2022-12-03T08:25:26.487Z,935.24
2022-12-03T08:26:27.390Z,935.26
2022-12-03T08:27:27.718Z,935.31
2022-12-03T08:28:27.915Z,935.27
2022-12-03T08:29:28.127Z,935.25
2022-12-03T08:30:28.472Z,935.21
2022-12-03T08:31:33.107Z,935.2
2022-12-03T08:32:30.109Z,935.21
2022-12-03T08:33:30.325Z,935.25
2022-12-03T08:34:31.289Z,935.22
2022-12-03T08:35:31.632Z,935.23
2022-12-03T08:36:32.521Z,935.27
2022-12-03T08:37:33.237Z,935.27
2022-12-03T08:38:34.169Z,935.26
2022-12-03T08:39:34.796Z,935.26
2022-12-03T08:40:35.743Z,935.22
2022-12-03T08:41:35.922Z,935.28
2022-12-03T08:42:36.220Z,935.27
2022-12-03T08:43:37.187Z,935.25
2022-12-03T08:44:37.684Z,935.22
2022-12-03T08:45:37.881Z,935.22
2022-12-03T08:46:38.486Z,935.26
2022-12-03T08:47:39.184Z,935.24
2022-12-03T08:48:42.843Z,935.25
2022-12-03T08:49:39.893Z,935.23
2022-12-03T08:50:40.166Z,935.23
2022-12-03T08:51:40.379Z,935.23
2022-12-03T08:52:40.740Z,935.26
2022-12-03T08:53:40.972Z,935.27
2022-12-03T08:54:41.185Z,935.23
2022-12-03T08:55:41.831Z,935.2
2022-12-03T08:56:42.135Z,935.24
2022-12-03T08:57:42.510Z,935.32
2022-12-03T08:58:43.419Z,935.26
2022-12-03T08:59:45.729Z,935.27
2022-12-03T09:00:45.110Z,935.3
2022-12-03T09:01:46.230Z,935.31
2022-12-03T09:02:46.512Z,935.35
2022-12-03T09:03:47.097Z,935.25
2022-12-03T09:04:48.053Z,935.29
2022-12-03T09:05:48.444Z,935.35
2022-12-03T09:06:49.076Z,935.28
2022-12-03T09:07:50.046Z,935.27
2022-12-03T09:08:50.461Z,935.24
2022-12-03T09:09:51.255Z,935.22
2022-12-03T09:10:52.191Z,935.23
2022-12-03T09:11:52.669Z,935.25
2022-12-03T09:12:52.871Z,935.32
2022-12-03T09:13:53.061Z,935.33
2022-12-03T09:14:53.477Z,935.29
2022-12-03T09:15:53.945Z,935.28
2022-12-03T09:16:55.045Z,935.33
2022-12-03T09:17:55.524Z,935.33
2022-12-03T09:18:56.174Z,935.31
2022-12-03T09:19:56.780Z,935.29
2022-12-03T09:20:57.740Z,935.31
2022-12-03T09:21:58.647Z,935.26
2022-12-03T09:22:59.566Z,935.32
2022-12-03T09:23:59.777Z,935.36
2022-12-03T09:24:59.956Z,935.36
2022-12-03T09:26:00.196Z,935.34
2022-12-03T09:27:00.399Z,935.35
2022-12-03T09:28:01.413Z,935.29
2022-12-03T09:29:01.599Z,935.26
2022-12-03T09:30:02.631Z,935.24
2022-12-03T09:31:03.120Z,935.24
2022-12-03T09:32:03.774Z,935.23
2022-12-03T09:33:04.518Z,935.16
2022-12-03T09:34:05.462Z,935.12
2022-12-03T09:35:05.649Z,935.17
2022-12-03T09:36:06.363Z,935.14
2022-12-03T09:37:06.569Z,935.14
2022-12-03T09:38:07.288Z,935.11
2022-12-03T09:39:07.901Z,935.18
2022-12-03T09:40:08.535Z,935.14
2022-12-03T09:41:08.746Z,935.18
2022-12-03T09:42:08.921Z,935.17
2022-12-03T09:43:09.830Z,935.15
2022-12-03T09:44:15.742Z,935.14
2022-12-03T09:45:11.073Z,935.12
2022-12-03T09:46:12.035Z,935.09
2022-12-03T09:47:12.432Z,935.09
2022-12-03T09:48:13.163Z,935.04
2022-12-03T09:49:16.156Z,935.01
2022-12-03T09:50:15.185Z,935
2022-12-03T09:51:15.349Z,935
2022-12-03T09:52:15.692Z,935.03
2022-12-03T09:53:16.232Z,935.01
2022-12-03T09:54:17.250Z,935.01
2022-12-03T09:55:17.470Z,934.98
2022-12-03T09:56:17.988Z,934.97
2022-12-03T09:57:18.196Z,934.92
2022-12-03T09:58:18.945Z,934.9
2022-12-03T09:59:19.366Z,934.87
2022-12-03T10:00:19.705Z,934.88
2022-12-03T10:01:20.003Z,934.84
2022-12-03T10:02:20.120Z,934.9
2022-12-03T10:03:22.067Z,934.89
2022-12-03T10:04:20.973Z,934.85
2022-12-03T10:05:21.368Z,934.85
2022-12-03T10:06:21.701Z,934.86
2022-12-03T10:07:21.935Z,934.86
2022-12-03T10:08:22.154Z,934.83
2022-12-03T10:09:22.975Z,934.82
2022-12-03T10:10:23.723Z,934.82
2022-12-03T10:11:24.397Z,934.79
2022-12-03T10:12:24.868Z,934.75
2022-12-03T10:13:26.239Z,934.72
2022-12-03T10:14:26.185Z,934.73
2022-12-03T10:15:27.094Z,934.68
2022-12-03T10:16:27.808Z,934.71
2022-12-03T10:17:28.046Z,934.67
2022-12-03T10:18:30.621Z,934.64
2022-12-03T10:19:28.504Z,934.67
2022-12-03T10:20:29.494Z,934.68
2022-12-03T10:21:29.676Z,934.75
2022-12-03T10:22:29.877Z,934.73
2022-12-03T10:23:30.801Z,934.71
2022-12-03T10:24:31.769Z,934.73
2022-12-03T10:25:32.407Z,934.68
2022-12-03T10:26:33.072Z,934.65
2022-12-03T10:27:33.984Z,934.62
2022-12-03T10:28:34.578Z,934.57
2022-12-03T10:29:34.997Z,934.58
2022-12-03T10:30:35.846Z,934.57
2022-12-03T10:31:36.285Z,934.57
2022-12-03T10:32:37.275Z,934.59
2022-12-03T10:33:37.616Z,934.56
2022-12-03T10:34:37.827Z,934.53
2022-12-03T10:35:38.291Z,934.51
2022-12-03T10:36:38.585Z,934.53
2022-12-03T10:37:38.777Z,934.51
2022-12-03T10:38:39.793Z,934.5
2022-12-03T10:39:40.002Z,934.49
2022-12-03T10:40:40.507Z,934.51
2022-12-03T10:41:41.422Z,934.51
2022-12-03T10:42:41.671Z,934.48
2022-12-03T10:43:42.605Z,934.48
2022-12-03T10:44:42.790Z,934.42
2022-12-03T10:45:43.612Z,934.41
2022-12-03T10:46:44.531Z,934.36
2022-12-03T10:47:44.626Z,934.38
2022-12-03T10:48:45.402Z,934.39
2022-12-03T10:49:46.331Z,934.37
2022-12-03T10:50:46.552Z,934.37
2022-12-03T10:51:47.052Z,934.4
2022-12-03T10:52:47.259Z,934.45
2022-12-03T10:53:48.176Z,934.48
2022-12-03T10:54:49.074Z,934.49
2022-12-03T10:55:49.736Z,934.48
2022-12-03T10:56:49.962Z,934.47
2022-12-03T10:57:50.161Z,934.43
2022-12-03T10:58:50.749Z,934.48
2022-12-03T10:59:50.950Z,934.5
2022-12-03T11:00:51.871Z,934.47
2022-12-03T11:01:52.737Z,934.42
2022-12-03T11:02:56.912Z,934.43
2022-12-03T11:03:53.553Z,934.43
2022-12-03T11:04:54.189Z,934.42
2022-12-03T11:05:54.586Z,934.44
2022-12-03T11:06:54.781Z,934.41
2022-12-03T11:07:55.719Z,934.38
2022-12-03T11:08:58.634Z,934.41
2022-12-03T11:09:57.159Z,934.42
2022-12-03T11:10:57.501Z,934.41
2022-12-03T11:11:57.738Z,934.4
2022-12-03T11:12:58.615Z,934.44
2022-12-03T11:13:59.566Z,934.37
2022-12-03T11:15:00.122Z,934.37
2022-12-03T11:16:00.501Z,934.32
2022-12-03T11:17:00.854Z,934.36
2022-12-03T11:18:01.101Z,934.33
2022-12-03T11:19:02.102Z,934.33
2022-12-03T11:20:02.616Z,934.29
2022-12-03T11:21:02.738Z,934.32
2022-12-03T11:22:03.640Z,934.34
2022-12-03T11:23:04.124Z,934.32
2022-12-03T11:24:04.311Z,934.32
2022-12-03T11:25:04.927Z,934.26
2022-12-03T11:26:05.862Z,934.3
2022-12-03T11:27:06.211Z,934.27
2022-12-03T11:28:07.134Z,934.24
2022-12-03T11:29:07.461Z,934.21
2022-12-03T11:30:07.653Z,934.24
2022-12-03T11:31:07.866Z,934.32
2022-12-03T11:32:08.030Z,934.29
2022-12-03T11:33:08.377Z,934.24
2022-12-03T11:34:08.870Z,934.26
2022-12-03T11:35:09.573Z,934.31
2022-12-03T11:36:10.502Z,934.27
2022-12-03T11:37:11.235Z,934.27
2022-12-03T11:38:11.487Z,934.28
2022-12-03T11:39:11.781Z,934.3
2022-12-03T11:40:12.410Z,934.29
2022-12-03T11:41:12.756Z,934.29
2022-12-03T11:42:13.396Z,934.25
2022-12-03T11:43:13.597Z,934.24
2022-12-03T11:44:14.540Z,934.26
2022-12-03T11:45:14.885Z,934.24
2022-12-03T11:46:15.099Z,934.22
2022-12-03T11:47:15.814Z,934.26
2022-12-03T11:48:16.154Z,934.22
2022-12-03T11:49:16.597Z,934.19
2022-12-03T11:50:16.812Z,934.21
2022-12-03T11:51:17.300Z,934.26
2022-12-03T11:52:17.927Z,934.25
2022-12-03T11:53:18.540Z,934.22
2022-12-03T11:54:18.914Z,934.25
2022-12-03T11:55:19.832Z,934.24
2022-12-03T11:56:20.039Z,934.25
2022-12-03T11:57:20.959Z,934.29
2022-12-03T11:58:21.154Z,934.24
2022-12-03T11:59:21.481Z,934.21
2022-12-03T12:00:22.399Z,934.23
2022-12-03T12:01:23.043Z,934.14
2022-12-03T12:02:23.807Z,934.14
2022-12-03T12:03:24.070Z,934.1
2022-12-03T12:04:24.154Z,934.13
2022-12-03T12:05:24.711Z,934.15
2022-12-03T12:06:25.633Z,934.11
2022-12-03T12:07:26.001Z,934.08
2022-12-03T12:08:26.279Z,934.08
2022-12-03T12:09:27.277Z,934.11
2022-12-03T12:10:28.190Z,934.13
2022-12-03T12:11:28.409Z,934.13
2022-12-03T12:12:29.049Z,934.13
2022-12-03T12:13:30.012Z,934.09
2022-12-03T12:14:30.952Z,934.09
2022-12-03T12:15:31.846Z,934.08
2022-12-03T12:16:32.914Z,934.06
2022-12-03T12:17:32.967Z,934.07
2022-12-03T12:18:33.188Z,934.01
2022-12-03T12:19:33.559Z,934.07
2022-12-03T12:20:34.283Z,934.05
2022-12-03T12:21:35.219Z,934.01
2022-12-03T12:22:35.932Z,933.97
2022-12-03T12:23:36.122Z,933.93
2022-12-03T12:24:36.464Z,933.99
2022-12-03T12:25:36.947Z,933.94
2022-12-03T12:26:37.043Z,933.86
2022-12-03T12:27:37.978Z,933.84
2022-12-03T12:28:38.601Z,933.84
2022-12-03T12:29:38.933Z,933.88
2022-12-03T12:30:39.850Z,933.83
2022-12-03T12:31:40.272Z,933.81
2022-12-03T12:32:40.707Z,933.81
2022-12-03T12:33:40.948Z,933.84
2022-12-03T12:34:41.859Z,933.82
2022-12-03T12:35:42.366Z,933.85
2022-12-03T12:36:42.572Z,933.88
2022-12-03T12:37:47.149Z,933.9